Time;durP1;ratioP1;P1;durP2;ratioP2;P2;SDS_P1;SDS_P2;PMS_P1;PMS_P2;Temp;Humidity;BMP_temperature;BMP_pressure;BME280_temperature;BME280_humidity;BME280_pressure;Samples;Min_cycle;Max_cycle;Signal;HPM_P1;HPM_P2
2022/09/17 00:02:04;;;;;;;5.63;0.73;;;;;;;;;;4998331;28;20729;-86
2022/09/17 00:04:30;;;;;;;1.55;1.00;;;9.90;99.90;;;;;;4998050;28;20444;-87
2022/09/17 00:06:55;;;;;;;0.80;0.73;;;;;;;;;;4998700;28;20190;-84
2022/09/17 00:09:21;;;;;;;2.03;1.30;;;;;;;;;;4997072;28;20462;-86
2022/09/17 00:11:47;;;;;;;3.33;0.87;;;;;;;;;;4995392;28;20441;-85
2022/09/17 00:14:15;;;;;;;3.55;0.63;;;9.90;99.90;;;;;;4998168;28;20429;-85
2022/09/17 00:16:44;;;;;;;1.55;1.33;;;9.90;99.90;;;;;;5003787;28;20194;-81
2022/09/17 00:19:14;;;;;;;4.80;1.45;;;9.90;99.90;;;;;;4985274;28;20287;-83
2022/09/17 00:21:40;;;;;;;1.25;0.77;;;;;;;;;;5002545;28;20183;-85
2022/09/17 00:24:07;;;;;;;1.85;1.00;;;;;;;;;;4978659;28;20728;-86
2022/09/17 00:26:33;;;;;;;2.13;0.82;;;9.80;99.90;;;;;;4997645;28;20201;-84
2022/09/17 00:28:59;;;;;;;2.42;1.00;;;9.70;99.90;;;;;;5001073;28;20651;-85
2022/09/17 00:31:26;;;;;;;2.78;1.00;;;9.70;99.90;;;;;;5004816;28;20249;-87
2022/09/17 00:33:52;;;;;;;2.40;0.80;;;;;;;;;;4983902;28;20202;-86
2022/09/17 00:36:19;;;;;;;1.67;1.13;;;9.60;99.90;;;;;;5003216;28;20690;-86
2022/09/17 00:38:48;;;;;;;2.55;1.17;;;9.50;99.90;;;;;;4995002;28;20217;-85
2022/09/17 00:41:14;;;;;;;4.22;1.17;;;;;;;;;;4999496;28;20186;-86
2022/09/17 00:43:43;;;;;;;2.20;1.00;;;9.40;99.90;;;;;;4984306;28;20224;-85
2022/09/17 00:46:20;;;;;;;1.90;0.90;;;9.30;99.90;;;;;;4997431;28;20533;-83
2022/09/17 00:48:46;;;;;;;1.17;0.70;;;9.30;99.90;;;;;;5004849;28;20186;-83
2022/09/17 00:51:16;;;;;;;1.85;0.82;;;9.30;99.90;;;;;;5004094;28;20190;-84
2022/09/17 00:53:42;;;;;;;1.75;0.65;;;;;;;;;;4985080;28;20194;-85
2022/09/17 00:56:18;;;;;;;6.70;1.10;;;9.40;99.90;;;;;;4997315;28;20194;-88
2022/09/17 00:58:44;;;;;;;0.90;0.77;;;;;;;;;;4993754;28;20468;-84
2022/09/17 01:01:10;;;;;;;5.70;1.23;;;9.40;99.90;;;;;;4979703;28;20710;-83
2022/09/17 01:03:36;;;;;;;13.60;2.90;;;;;;;;;;4990298;28;20197;-82
2022/09/17 01:06:42;;;;;;;2.10;1.07;;;9.30;99.90;;;;;;4977452;28;20182;-87
2022/09/17 01:09:47;;;;;;;2.95;1.13;;;9.30;99.90;;;;;;4997849;28;20468;-85
2022/09/17 01:12:13;;;;;;;1.10;0.73;;;;;;;;;;4923564;28;20194;-82
2022/09/17 01:14:57;;;;;;;1.70;0.93;;;9.20;99.90;;;;;;4977778;28;20193;-83
2022/09/17 01:17:55;;;;;;;3.85;0.90;;;9.10;99.90;;;;;;4982811;28;20548;-85
2022/09/17 01:20:42;;;;;;;1.63;0.93;;;9.10;99.90;;;;;;4988545;28;20202;-84
2022/09/17 01:23:51;;;;;;;0.63;0.63;;;9.10;99.90;;;;;;4997216;28;20278;-83
2022/09/17 01:26:38;;;;;;;1.73;1.15;;;9.10;99.90;;;;;;4992993;28;20625;-87
2022/09/17 01:29:13;;;;;;;2.70;0.82;;;9.10;99.90;;;;;;4983863;28;20308;-84
2022/09/17 01:32:08;;;;;;;1.73;0.80;;;9.10;99.90;;;;;;4987220;28;20641;-82
2022/09/17 01:35:00;;;;;;;4.80;1.30;;;9.10;99.90;;;;;;5006907;28;20190;-84
2022/09/17 01:37:57;;;;;;;4.15;1.27;;;9.10;99.90;;;;;;4994074;28;20207;-85
2022/09/17 01:40:38;;;;;;;5.38;1.55;;;9.10;99.90;;;;;;4950241;28;20229;-85
2022/09/17 01:43:13;;;;;;;2.08;1.30;;;9.10;99.90;;;;;;4993907;28;20178;-89
2022/09/17 01:45:44;;;;;;;1.63;0.60;;;9.10;99.90;;;;;;4972825;28;20248;-86
2022/09/17 01:48:18;;;;;;;3.30;1.45;;;8.50;99.90;;;;;;4985550;28;20209;-83
2022/09/17 01:51:05;;;;;;;1.13;0.70;;;9.20;99.90;;;;;;4982639;28;20208;-83
2022/09/17 01:53:40;;;;;;;1.23;0.60;;;9.20;99.90;;;;;;5002517;28;20332;-85
2022/09/17 01:56:08;;;;;;;1.40;1.00;;;9.10;99.90;;;;;;4998662;28;20174;-85
2022/09/17 01:58:41;;;;;;;1.25;0.60;;;9.00;99.90;;;;;;5002857;28;20202;-82
2022/09/17 02:01:10;;;;;;;7.05;1.20;;;8.90;99.90;;;;;;5007696;28;21350;-79
2022/09/17 02:03:43;;;;;;;3.10;1.15;;;8.90;99.90;;;;;;5018259;28;20206;-82
2022/09/17 02:06:17;;;;;;;2.58;1.00;;;9.00;99.90;;;;;;4996223;28;20233;-85
2022/09/17 02:08:49;;;;;;;4.65;0.80;;;9.00;99.90;;;;;;4984801;28;20181;-82
2022/09/17 02:11:16;;;;;;;0.75;0.65;;;9.00;99.90;;;;;;5018286;28;20300;-84
2022/09/17 02:13:42;;;;;;;1.73;1.08;;;;;;;;;;5019672;28;20190;-82
2022/09/17 02:16:34;;;;;;;5.35;0.98;;;9.00;99.90;;;;;;5013874;28;20174;-83
2022/09/17 02:19:09;;;;;;;11.73;1.88;;;9.10;99.90;;;;;;5000475;28;20207;-83
2022/09/17 02:21:46;;;;;;;2.75;1.25;;;9.10;99.90;;;;;;4972865;28;20182;-82
2022/09/17 02:24:25;;;;;;;8.73;1.40;;;9.00;99.90;;;;;;5004122;28;20653;-86
2022/09/17 02:27:00;;;;;;;2.60;1.05;;;9.10;99.90;;;;;;4994418;28;20237;-83
2022/09/17 02:29:33;;;;;;;3.15;1.25;;;9.00;99.90;;;;;;4998842;28;20247;-86
2022/09/17 02:32:00;;;;;;;1.88;0.98;;;9.00;99.90;;;;;;4994565;28;20189;-82
2022/09/17 02:34:28;;;;;;;8.73;1.52;;;9.00;99.90;;;;;;4998154;28;20376;-86
2022/09/17 02:36:54;;;;;;;2.20;1.00;;;;;;;;;;4994602;28;20190;-83
2022/09/17 02:39:20;;;;;;;4.47;1.60;;;;;;;;;;4977322;28;20661;-86
2022/09/17 02:42:04;;;;;;;2.60;1.17;;;8.80;99.90;;;;;;4977226;28;20975;-83
2022/09/17 02:44:49;;;;;;;1.73;1.15;;;8.70;99.90;;;;;;4994066;28;20445;-88
2022/09/17 02:47:26;;;;;;;10.48;1.02;;;8.70;99.90;;;;;;4990949;28;20659;-85
2022/09/17 02:50:15;;;;;;;4.53;0.80;;;8.70;99.90;;;;;;5005843;28;20182;-85
2022/09/17 02:52:56;;;;;;;1.90;0.80;;;8.60;99.90;;;;;;5002615;28;20193;-86
2022/09/17 02:55:42;;;;;;;1.98;1.15;;;8.60;99.90;;;;;;4999389;28;20178;-85
2022/09/17 02:58:25;;;;;;;1.50;0.95;;;8.60;99.90;;;;;;5005332;28;20332;-84
2022/09/17 03:00:52;;;;;;;5.72;1.48;;;8.60;99.90;;;;;;4986338;28;20202;-85
2022/09/17 03:03:29;;;;;;;1.70;1.50;;;8.60;99.90;;;;;;4993332;28;20218;-82
2022/09/17 03:05:55;;;;;;;8.77;1.23;;;8.60;99.90;;;;;;4988287;28;20228;-84
2022/09/17 03:08:33;;;;;;;1.02;0.88;;;8.60;99.90;;;;;;4997776;28;20187;-85
2022/09/17 03:10:58;;;;;;;4.80;1.25;;;8.60;99.90;;;;;;5003470;28;20317;-86
2022/09/17 03:13:24;;;;;;;3.03;1.40;;;8.60;99.90;;;;;;4996180;28;20221;-84
2022/09/17 03:15:49;;;;;;;1.17;1.03;;;8.50;99.90;;;;;;4999742;28;20190;-86
2022/09/17 03:18:15;;;;;;;2.10;1.33;;;8.50;99.90;;;;;;5007183;28;20267;-85
2022/09/17 03:20:41;;;;;;;2.17;1.20;;;;;;;;;;4998128;28;20750;-83
2022/09/17 03:23:07;;;;;;;13.63;1.83;;;;;;;;;;4996990;28;20178;-87
2022/09/17 03:25:33;;;;;;;3.10;1.30;;;;;;;;;;4982682;28;20425;-87
2022/09/17 03:27:58;;;;;;;4.60;0.87;;;8.50;99.90;;;;;;5016396;28;20436;-82
2022/09/17 03:30:24;;;;;;;5.80;1.17;;;;;;;;;;4995176;28;21096;-83
2022/09/17 03:32:50;;;;;;;5.80;1.70;;;;;;;;;;4996394;28;20721;-85
2022/09/17 03:35:16;;;;;;;12.97;2.30;;;;;;;;;;5007908;28;20491;-87
2022/09/17 03:37:42;;;;;;;3.00;1.30;;;;;;;;;;5002118;28;20487;-86
2022/09/17 03:40:09;;;;;;;4.00;0.93;;;;;;;;;;4998760;28;20601;-85
2022/09/17 03:42:34;;;;;;;1.42;1.33;;;8.60;99.90;;;;;;4997306;28;20437;-82
2022/09/17 03:45:00;;;;;;;11.37;1.80;;;;;;;;;;5003589;28;21024;-85
2022/09/17 03:47:26;;;;;;;3.47;1.60;;;;;;;;;;4992156;28;20210;-84
2022/09/17 03:49:52;;;;;;;2.30;1.30;;;;;;;;;;4994462;28;20519;-83
2022/09/17 03:52:19;;;;;;;1.30;0.83;;;;;;;;;;4969316;28;20653;-84
2022/09/17 03:54:45;;;;;;;5.28;1.73;;;;;;;;;;4996317;28;20433;-86
2022/09/17 03:57:11;;;;;;;3.97;1.73;;;;;;;;;;4995096;28;20190;-86
2022/09/17 03:59:36;;;;;;;1.20;1.00;;;8.60;99.90;;;;;;4999580;28;20483;-86
2022/09/17 04:02:02;;;;;;;2.27;1.30;;;;;;;;;;5000938;28;21344;-83
2022/09/17 04:04:28;;;;;;;2.80;1.13;;;;;;;;;;4995602;28;20205;-86
2022/09/17 04:06:54;;;;;;;1.47;1.37;;;;;;;;;;4994640;28;20429;-83
2022/09/17 04:09:20;;;;;;;4.10;1.67;;;;;;;;;;5013296;28;20465;-85
2022/09/17 04:11:45;;;;;;;4.20;1.80;;;8.50;99.90;;;;;;4999525;28;20881;-84
2022/09/17 04:14:11;;;;;;;3.03;1.80;;;;;;;;;;4986278;28;20452;-86
2022/09/17 04:16:37;;;;;;;3.00;1.23;;;;;;;;;;5001222;28;20182;-86
2022/09/17 04:19:03;;;;;;;2.87;1.40;;;;;;;;;;4994154;28;20461;-83
2022/09/17 04:21:29;;;;;;;7.40;1.90;;;;;;;;;;4973269;28;20821;-85
2022/09/17 04:23:55;;;;;;;2.03;1.27;;;;;;;;;;4997630;28;20491;-86
2022/09/17 04:26:21;;;;;;;3.10;1.30;;;;;;;;;;5006736;28;20190;-85
2022/09/17 04:28:47;;;;;;;1.65;1.17;;;8.30;99.90;;;;;;5007491;28;20539;-84
2022/09/17 04:31:13;;;;;;;1.60;1.10;;;;;;;;;;4988557;28;20201;-85
2022/09/17 04:33:38;;;;;;;2.17;1.60;;;8.40;99.90;;;;;;4997922;28;20190;-84
2022/09/17 04:36:04;;;;;;;8.10;3.20;;;8.40;99.90;;;;;;5000820;28;20496;-84
2022/09/17 04:38:30;;;;;;;5.10;1.50;;;;;;;;;;5016258;28;20628;-86
2022/09/17 04:40:56;;;;;;;2.23;1.57;;;;;;;;;;5006933;28;20202;-84
2022/09/17 04:43:22;;;;;;;4.60;1.60;;;;;;;;;;4995044;28;20524;-88
2022/09/17 04:45:49;;;;;;;3.50;1.52;;;8.40;99.90;;;;;;4994530;28;20437;-86
2022/09/17 04:48:15;;;;;;;1.63;1.25;;;8.40;99.90;;;;;;4994107;28;20182;-86
2022/09/17 04:50:41;;;;;;;4.57;2.20;;;8.30;99.90;;;;;;4993980;28;20210;-84
2022/09/17 04:53:06;;;;;;;2.17;1.90;;;8.30;99.90;;;;;;5002876;28;20259;-85
2022/09/17 04:55:32;;;;;;;3.10;1.50;;;;;;;;;;4989382;28;20255;-86
2022/09/17 04:57:58;;;;;;;5.40;1.80;;;;;;;;;;5003031;28;20306;-84
2022/09/17 05:00:25;;;;;;;4.00;1.40;;;;;;;;;;4995399;28;20468;-85
2022/09/17 05:02:53;;;;;;;6.78;1.63;;;8.30;99.90;;;;;;5005614;28;20433;-84
2022/09/17 05:05:19;;;;;;;3.95;1.50;;;8.30;99.90;;;;;;5023563;28;20167;-83
2022/09/17 05:07:45;;;;;;;3.67;2.20;;;8.40;99.90;;;;;;5014589;28;20189;-83
2022/09/17 05:10:12;;;;;;;3.97;1.83;;;8.40;99.90;;;;;;5024101;28;20221;-83
2022/09/17 05:12:38;;;;;;;2.78;1.48;;;;;;;;;;5017527;28;20548;-84
2022/09/17 05:15:04;;;;;;;3.10;1.57;;;8.40;99.90;;;;;;5015752;28;20258;-83
2022/09/17 05:17:30;;;;;;;5.22;1.63;;;;;;;;;;4997557;28;20449;-84
2022/09/17 05:19:56;;;;;;;2.30;1.70;;;;;;;;;;4998522;28;20487;-83
2022/09/17 05:22:22;;;;;;;1.53;1.40;;;;;;;;;;4994366;28;20179;-87
2022/09/17 05:24:48;;;;;;;7.10;1.50;;;;;;;;;;5014216;28;20889;-86
2022/09/17 05:27:14;;;;;;;3.57;1.37;;;;;;;;;;4994658;28;20433;-83
2022/09/17 05:29:39;;;;;;;2.38;2.03;;;8.60;99.90;;;;;;4996155;28;21430;-84
2022/09/17 05:32:06;;;;;;;3.17;1.83;;;8.90;99.90;;;;;;4991497;28;20230;-84
2022/09/17 05:34:32;;;;;;;3.47;1.30;;;9.00;99.90;;;;;;4981591;28;20190;-84
2022/09/17 05:36:57;;;;;;;3.90;1.80;;;9.00;99.90;;;;;;4997661;28;20190;-86
2022/09/17 05:39:27;;;;;;;2.60;1.70;;;;;;;;;;4994447;28;20942;-84
2022/09/17 05:41:53;;;;;;;5.68;1.80;;;;;;;;;;5005686;28;20425;-82
2022/09/17 05:44:19;;;;;;;5.07;1.55;;;8.90;99.90;;;;;;5006778;28;20200;-84
2022/09/17 05:46:45;;;;;;;6.20;1.80;;;;;;;;;;5002590;28;20186;-85
2022/09/17 05:49:11;;;;;;;4.35;1.80;;;8.90;99.90;;;;;;5004377;28;21248;-85
2022/09/17 05:51:37;;;;;;;2.80;1.40;;;8.90;99.90;;;;;;4995974;28;20194;-84
2022/09/17 05:54:03;;;;;;;2.87;1.67;;;9.00;99.90;;;;;;4995633;28;20182;-87
2022/09/17 05:56:29;;;;;;;2.80;1.57;;;;;;;;;;4977199;28;20545;-83
2022/09/17 05:58:55;;;;;;;9.25;2.03;;;9.10;99.90;;;;;;4981151;28;20202;-85
2022/09/17 06:01:22;;;;;;;1.60;1.40;;;9.10;99.90;;;;;;4999365;28;20288;-88
2022/09/17 06:03:48;;;;;;;1.80;1.40;;;;;;;;;;4995198;28;20615;-88
2022/09/17 06:06:14;;;;;;;6.40;2.03;;;;;;;;;;4997691;28;20222;-86
2022/09/17 06:08:40;;;;;;;1.98;1.48;;;;;;;;;;4990968;28;20444;-86
2022/09/17 06:11:06;;;;;;;4.50;1.63;;;9.20;99.90;;;;;;4995498;28;20203;-86
2022/09/17 06:13:33;;;;;;;12.60;2.45;;;;;;;;;;4991011;28;20193;-85
2022/09/17 06:15:59;;;;;;;6.13;2.50;;;;;;;;;;4997087;28;20288;-86
2022/09/17 06:18:25;;;;;;;1.60;1.10;;;;;;;;;;4994752;28;20309;-86
2022/09/17 06:20:55;;;;;;;7.67;1.57;;;9.40;99.90;;;;;;4988316;28;20281;-83
2022/09/17 06:23:21;;;;;;;3.92;1.58;;;9.30;99.90;;;;;;4970880;28;20433;-85
2022/09/17 06:25:55;;;;;;;13.33;1.70;;;10.20;99.90;;;;;;4999288;28;20189;-85
2022/09/17 06:28:21;;;;;;;3.22;2.05;;;9.40;99.90;;;;;;5005128;28;20447;-86
2022/09/17 06:30:47;;;;;;;2.77;1.23;;;9.40;99.90;;;;;;5001091;28;20214;-84
2022/09/17 06:33:13;;;;;;;2.00;1.50;;;;;;;;;;4997574;28;20190;-85
2022/09/17 06:35:38;;;;;;;6.30;1.50;;;9.40;99.90;;;;;;5000776;28;20277;-86
2022/09/17 06:38:05;;;;;;;2.20;1.60;;;9.30;99.90;;;;;;4978068;28;20545;-86
2022/09/17 06:40:31;;;;;;;5.10;1.70;;;9.20;99.90;;;;;;4985441;28;20645;-84
2022/09/17 06:42:58;;;;;;;3.60;1.80;;;;;;;;;;5002654;28;20190;-86
2022/09/17 06:45:24;;;;;;;3.08;2.03;;;;;;;;;;5005380;28;20170;-84
2022/09/17 06:47:50;;;;;;;3.33;1.63;;;9.20;99.90;;;;;;5012684;28;20194;-83
2022/09/17 06:50:16;;;;;;;1.57;1.13;;;9.20;99.90;;;;;;4984659;28;20206;-81
2022/09/17 06:52:49;;;;;;;1.50;1.30;;;9.20;99.90;;;;;;5002078;28;20190;-85
2022/09/17 06:55:15;;;;;;;4.15;1.75;;;9.10;99.90;;;;;;5000806;28;20182;-83
2022/09/17 06:57:41;;;;;;;4.27;1.63;;;;;;;;;;4996835;28;20211;-85
2022/09/17 07:00:08;;;;;;;4.10;1.60;;;9.00;99.90;;;;;;4998177;28;20810;-87
2022/09/17 07:02:34;;;;;;;2.28;1.95;;;8.80;99.90;;;;;;5004759;28;20201;-86
2022/09/17 07:04:59;;;;;;;4.10;1.90;;;;;;;;;;5007543;28;20234;-85
2022/09/17 07:07:25;;;;;;;2.63;1.30;;;;;;;;;;5012370;28;20448;-88
2022/09/17 07:09:54;;;;;;;2.30;1.17;;;;;;;;;;5003868;28;20965;-89
2022/09/17 07:12:20;;;;;;;3.03;1.55;;;8.80;99.90;;;;;;4994619;28;20186;-86
2022/09/17 07:14:49;;;;;;;1.60;1.17;;;8.80;99.90;;;;;;5003239;28;20185;-84
2022/09/17 07:17:15;;;;;;;2.78;1.17;;;9.00;99.90;;;;;;4998060;28;20185;-85
2022/09/17 07:19:41;;;;;;;3.70;1.60;;;;;;;;;;4999982;28;20636;-87
2022/09/17 07:22:07;;;;;;;3.33;1.53;;;;;;;;;;5000716;28;20183;-84
2022/09/17 07:24:33;;;;;;;5.20;2.25;;;;;;;;;;4988881;28;20434;-87
2022/09/17 07:26:59;;;;;;;3.70;1.95;;;;;;;;;;4999425;28;20412;-84
2022/09/17 07:29:26;;;;;;;6.68;1.80;;;;;;;;;;5001207;28;20796;-85
2022/09/17 07:31:53;;;;;;;5.53;3.45;;;9.30;99.90;;;;;;5000083;28;20552;-87
2022/09/17 07:34:19;;;;;;;4.93;2.22;;;9.40;99.90;;;;;;5000865;28;20193;-85
2022/09/17 07:36:45;;;;;;;7.37;2.50;;;9.40;99.90;;;;;;5001518;28;20179;-86
2022/09/17 07:39:12;;;;;;;6.37;2.40;;;9.60;99.90;;;;;;5001164;28;20225;-85
2022/09/17 07:41:37;;;;;;;6.88;2.30;;;;;;;;;;5000124;28;20438;-86
2022/09/17 07:44:05;;;;;;;5.13;2.30;;;;;;;;;;4995992;28;20194;-87
2022/09/17 07:46:31;;;;;;;3.13;1.45;;;9.80;99.90;;;;;;5001694;28;20440;-87
2022/09/17 07:48:57;;;;;;;3.50;2.30;;;;;;;;;;4982751;28;20194;-87
2022/09/17 07:51:24;;;;;;;8.23;3.27;;;9.90;99.90;;;;;;5000820;28;20638;-85
2022/09/17 07:53:56;;;;;;;5.90;2.92;;;10.10;99.90;;;;;;4997764;28;20485;-87
2022/09/17 07:56:23;;;;;;;4.30;2.00;;;10.10;99.90;;;;;;4980976;28;20540;-85
2022/09/17 07:58:49;;;;;;;2.17;1.95;;;;;;;;;;4986945;28;20248;-87
2022/09/17 08:01:16;;;;;;;7.93;2.30;;;9.90;99.90;;;;;;5000597;28;20644;-84
2022/09/17 08:03:48;;;;;;;4.75;2.90;;;10.00;99.90;;;;;;4995613;28;20487;-87
2022/09/17 08:06:16;;;;;;;6.38;2.72;;;10.90;99.90;;;;;;4986165;28;20192;-87
2022/09/17 08:08:45;;;;;;;6.32;2.08;;;11.00;99.90;;;;;;5006395;28;20184;-88
2022/09/17 08:11:14;;;;;;;2.55;2.03;;;11.60;99.90;;;;;;5019343;28;20351;-84
2022/09/17 08:13:40;;;;;;;3.40;1.88;;;11.90;99.90;;;;;;5007407;28;20205;-89
2022/09/17 08:16:09;;;;;;;11.98;2.35;;;11.70;99.90;;;;;;5001244;28;20182;-87
2022/09/17 08:18:35;;;;;;;7.18;2.47;;;11.70;99.90;;;;;;4986983;28;20208;-86
2022/09/17 08:21:03;;;;;;;5.47;1.23;;;12.80;99.90;;;;;;4997655;28;20253;-85
2022/09/17 08:23:29;;;;;;;2.85;1.70;;;13.30;99.90;;;;;;4984581;28;20183;-87
2022/09/17 08:25:57;;;;;;;6.35;1.90;;;12.50;99.90;;;;;;4998885;28;20202;-86
2022/09/17 08:28:25;;;;;;;3.78;1.45;;;12.50;99.90;;;;;;5007436;28;20190;-86
2022/09/17 08:30:52;;;;;;;3.70;1.70;;;13.00;99.90;;;;;;4988368;28;20206;-86
2022/09/17 08:33:18;;;;;;;4.30;1.52;;;;;;;;;;4986535;28;20197;-83
2022/09/17 08:35:52;;;;;;;4.37;1.50;;;13.60;99.90;;;;;;5024568;28;20196;-82
2022/09/17 08:38:18;;;;;;;4.13;1.90;;;;;;;;;;4980273;28;20507;-83
2022/09/17 08:41:09;;;;;;;3.73;1.70;;;12.80;99.90;;;;;;4982484;28;20245;-87
2022/09/17 08:43:48;;;;;;;3.22;2.22;;;11.90;99.90;;;;;;4992302;28;20448;-84
2022/09/17 08:46:14;;;;;;;4.25;2.05;;;;;;;;;;4994067;28;20189;-84
2022/09/17 08:49:04;;;;;;;9.75;2.35;;;11.30;99.90;;;;;;4990957;28;20898;-83
2022/09/17 08:51:32;;;;;;;14.73;2.50;;;11.30;99.90;;;;;;4998609;28;20204;-86
2022/09/17 08:54:21;;;;;;;8.20;3.05;;;11.50;99.90;;;;;;5010688;28;20186;-86
2022/09/17 08:56:57;;;;;;;6.00;2.30;;;11.70;99.90;;;;;;5003105;28;20195;-84
2022/09/17 08:59:37;;;;;;;5.35;2.00;;;11.70;99.90;;;;;;4981106;28;20210;-84
2022/09/17 09:02:39;;;;;;;4.15;1.88;;;12.50;99.90;;;;;;4981579;28;20182;-86
2022/09/17 09:05:17;;;;;;;3.00;1.40;;;12.50;99.90;;;;;;5001013;28;20273;-87
2022/09/17 09:07:47;;;;;;;5.50;2.20;;;12.40;99.90;;;;;;4997785;28;20269;-86
2022/09/17 09:10:16;;;;;;;11.23;2.22;;;12.40;99.90;;;;;;4997846;28;20647;-86
2022/09/17 09:12:44;;;;;;;6.38;2.67;;;12.20;99.90;;;;;;4995446;28;20195;-87
2022/09/17 09:15:42;;;;;;;3.70;2.00;;;12.10;99.90;;;;;;4999184;28;20273;-85
2022/09/17 09:18:19;;;;;;;7.57;2.13;;;12.30;99.90;;;;;;4993258;28;20580;-84
2022/09/17 09:21:11;;;;;;;4.57;1.42;;;12.20;99.90;;;;;;4994391;28;20213;-84
2022/09/17 09:24:00;;;;;;;8.20;2.83;;;12.00;99.90;;;;;;4982125;28;20246;-87
2022/09/17 09:26:49;;;;;;;6.93;1.95;;;12.00;99.90;;;;;;5013739;28;20195;-83
2022/09/17 09:29:21;;;;;;;4.97;2.00;;;12.00;99.90;;;;;;5026986;23;20265;-87
2022/09/17 09:31:47;;;;;;;6.25;2.05;;;;;;;;;;5009691;28;20179;-87
2022/09/17 09:34:14;;;;;;;5.50;2.35;;;13.20;99.90;;;;;;4993239;28;20206;-87
2022/09/17 09:36:40;;;;;;;13.07;2.00;;;;;;;;;;4992438;28;20182;-86
2022/09/17 09:39:06;;;;;;;1.80;1.40;;;;;;;;;;4990250;28;20257;-87
2022/09/17 09:41:32;;;;;;;2.80;1.80;;;;;;;;;;4996978;28;20441;-86
2022/09/17 09:44:03;;;;;;;3.47;1.60;;;14.10;99.90;;;;;;4985971;28;20484;-85
2022/09/17 09:47:00;;;;;;;4.27;1.67;;;13.20;99.90;;;;;;4992402;28;20534;-84
2022/09/17 09:49:49;;;;;;;5.97;1.77;;;13.10;99.90;;;;;;4924245;28;20536;-85
2022/09/17 09:52:15;;;;;;;6.18;2.00;;;;;;;;;;4991116;28;20652;-86
2022/09/17 09:54:58;;;;;;;3.87;1.60;;;12.70;99.90;;;;;;4992480;28;20183;-85
2022/09/17 09:57:45;;;;;;;7.82;1.98;;;13.00;99.90;;;;;;4997424;28;20442;-86
2022/09/17 10:00:31;;;;;;;4.95;1.63;;;12.40;99.90;;;;;;4986172;28;20182;-87
2022/09/17 10:03:19;;;;;;;4.45;1.90;;;12.70;99.90;;;;;;4963350;28;20186;-87
2022/09/17 10:05:57;;;;;;;6.13;2.08;;;13.00;99.90;;;;;;4986059;28;22891;-87
2022/09/17 10:08:23;;;;;;;9.23;1.90;;;;;;;;;;4971345;28;20303;-85
2022/09/17 10:11:15;;;;;;;3.10;1.83;;;13.90;99.90;;;;;;4985080;28;20217;-85
2022/09/17 10:13:42;;;;;;;3.00;1.40;;;;;;;;;;4988758;28;20296;-86
2022/09/17 10:16:18;;;;;;;6.20;1.83;;;13.80;99.90;;;;;;5001563;28;20187;-84
2022/09/17 10:18:45;;;;;;;3.00;1.47;;;13.70;99.90;;;;;;5016149;28;20253;-84
2022/09/17 10:21:32;;;;;;;5.47;1.73;;;13.80;99.90;;;;;;4998807;28;20442;-85
2022/09/17 10:24:00;;;;;;;5.13;1.60;;;13.60;99.90;;;;;;4986989;28;20461;-85
2022/09/17 10:26:29;;;;;;;5.90;1.63;;;13.40;99.90;;;;;;5000117;28;20434;-85
2022/09/17 10:28:57;;;;;;;6.72;1.15;;;13.40;99.90;;;;;;4998096;28;20246;-86
2022/09/17 10:31:23;;;;;;;4.43;1.67;;;;;;;;;;4987926;28;20962;-86
2022/09/17 10:34:01;;;;;;;2.53;1.40;;;13.30;99.90;;;;;;4994961;28;20444;-85
2022/09/17 10:36:46;;;;;;;13.88;2.20;;;13.00;99.90;;;;;;4995751;28;20193;-86
2022/09/17 10:39:31;;;;;;;4.78;2.22;;;13.00;99.90;;;;;;4993144;28;20230;-85
2022/09/17 10:42:05;;;;;;;6.90;1.80;;;13.10;99.90;;;;;;4995254;28;20179;-85
2022/09/17 10:44:33;;;;;;;6.95;1.70;;;12.30;99.90;;;;;;4996330;28;20186;-85
2022/09/17 10:47:10;;;;;;;6.07;2.35;;;13.70;99.90;;;;;;5008191;28;20407;-86
2022/09/17 10:49:40;;;;;;;7.30;1.80;;;14.10;99.90;;;;;;4993789;28;20241;-86
2022/09/17 10:52:24;;;;;;;7.90;1.67;;;14.40;99.90;;;;;;4990148;28;20430;-86
2022/09/17 10:54:50;;;;;;;5.43;1.53;;;;;;;;;;4989146;28;21246;-86
2022/09/17 10:57:28;;;;;;;3.53;1.13;;;14.30;99.90;;;;;;4999662;28;20431;-86
2022/09/17 10:59:55;;;;;;;1.70;1.15;;;;;;;;;;4990871;28;20730;-85
2022/09/17 11:03:04;;;;;;;4.22;1.67;;;13.10;99.90;;;;;;4992853;28;20186;-87
2022/09/17 11:05:51;;;;;;;4.03;1.80;;;12.90;99.90;;;;;;4991073;28;20265;-86
2022/09/17 11:08:34;;;;;;;3.42;1.20;;;12.50;99.90;;;;;;4983143;28;20210;-87
2022/09/17 11:11:15;;;;;;;5.57;1.70;;;12.60;99.90;;;;;;4996792;28;20186;-87
2022/09/17 11:13:41;;;;;;;4.28;1.85;;;;;;;;;;4995171;28;20251;-86
2022/09/17 11:16:31;;;;;;;9.00;1.50;;;12.20;99.90;;;;;;4994194;28;20324;-86
2022/09/17 11:19:08;;;;;;;3.47;1.83;;;12.10;99.90;;;;;;4987269;28;20474;-87
2022/09/17 11:21:36;;;;;;;4.85;1.90;;;12.20;99.90;;;;;;4988862;28;20226;-86
2022/09/17 11:24:23;;;;;;;2.50;1.40;;;12.40;99.90;;;;;;4984683;28;20194;-86
2022/09/17 11:27:02;;;;;;;12.55;1.48;;;12.60;99.90;;;;;;4995282;28;20265;-86
2022/09/17 11:29:46;;;;;;;4.15;1.70;;;12.70;99.90;;;;;;4994733;28;20281;-87
2022/09/17 11:32:37;;;;;;;2.88;1.70;;;13.10;99.90;;;;;;4973999;28;20194;-87
2022/09/17 11:35:14;;;;;;;6.68;2.15;;;12.60;99.90;;;;;;4993157;28;20183;-86
2022/09/17 11:38:01;;;;;;;3.15;1.52;;;12.50;99.90;;;;;;4992435;28;20721;-87
2022/09/17 11:40:39;;;;;;;3.15;1.30;;;12.40;99.90;;;;;;4995060;28;20664;-85
2022/09/17 11:43:30;;;;;;;7.22;1.85;;;12.60;99.90;;;;;;4998470;28;20186;-86
2022/09/17 11:45:58;;;;;;;4.30;2.20;;;12.80;99.90;;;;;;5003511;28;20198;-86
2022/09/17 11:48:33;;;;;;;4.85;1.30;;;13.10;99.90;;;;;;4997908;28;20198;-86
2022/09/17 11:51:45;;;;;;;3.67;1.70;;;13.10;99.90;;;;;;4986364;28;20822;-86
2022/09/17 11:54:36;;;;;;;3.33;1.45;;;13.30;99.90;;;;;;4930917;28;20188;-86
2022/09/17 11:57:22;;;;;;;2.63;1.30;;;13.20;99.90;;;;;;4935724;28;20192;-86
2022/09/17 12:00:12;;;;;;;5.35;1.17;;;13.30;99.90;;;;;;4980499;28;20847;-86
2022/09/17 12:02:56;;;;;;;10.40;2.00;;;13.30;99.90;;;;;;4976585;28;20840;-85
2022/09/17 12:05:36;;;;;;;4.95;1.63;;;13.10;99.90;;;;;;4969713;28;20186;-86
2022/09/17 12:08:16;;;;;;;2.95;1.50;;;13.00;99.90;;;;;;4990715;28;20280;-85
2022/09/17 12:10:54;;;;;;;4.05;1.35;;;12.90;99.90;;;;;;5008186;28;20178;-86
2022/09/17 12:13:33;;;;;;;6.88;1.00;;;12.80;99.90;;;;;;5012028;28;20187;-85
2022/09/17 12:16:25;;;;;;;3.67;1.10;;;12.50;99.90;;;;;;5013078;28;20179;-87
2022/09/17 12:18:51;;;;;;;9.73;1.42;;;;;;;;;;4987932;28;20249;-85
2022/09/17 12:21:24;;;;;;;2.93;1.20;;;12.30;99.90;;;;;;4986069;28;20274;-85
2022/09/17 12:23:58;;;;;;;5.47;1.60;;;12.60;99.90;;;;;;4972408;28;20983;-84
2022/09/17 12:26:58;;;;;;;3.35;1.08;;;13.30;99.90;;;;;;4974583;28;20230;-86
2022/09/17 12:29:51;;;;;;;2.45;0.95;;;13.50;99.90;;;;;;4984665;28;20267;-85
2022/09/17 12:32:40;;;;;;;1.60;0.77;;;13.60;99.90;;;;;;4984175;28;21161;-85
2022/09/17 12:35:40;;;;;;;4.28;0.80;;;13.90;99.90;;;;;;4980249;28;20185;-85
2022/09/17 12:38:29;;;;;;;6.78;1.35;;;13.90;99.90;;;;;;4971201;28;20286;-85
2022/09/17 12:40:55;;;;;;;1.83;0.93;;;;;;;;;;4980610;28;20179;-86
2022/09/17 12:43:38;;;;;;;3.93;0.77;;;13.70;99.90;;;;;;4990833;28;20179;-85
2022/09/17 12:46:38;;;;;;;3.88;1.13;;;13.50;99.90;;;;;;4992660;28;20445;-86
2022/09/17 12:49:24;;;;;;;2.67;1.13;;;13.60;99.90;;;;;;4984732;28;20210;-84
2022/09/17 12:52:00;;;;;;;4.25;1.10;;;13.30;99.90;;;;;;4982825;28;20186;-84
2022/09/17 12:54:35;;;;;;;2.85;1.30;;;13.40;99.90;;;;;;4982140;28;20186;-84
2022/09/17 12:57:31;;;;;;;4.95;1.20;;;13.40;99.90;;;;;;4984825;28;20181;-84
2022/09/17 13:00:17;;;;;;;3.10;1.33;;;13.60;99.90;;;;;;4976002;28;20245;-85
2022/09/17 13:03:02;;;;;;;3.17;1.20;;;13.70;99.90;;;;;;4990889;28;20284;-85
2022/09/17 13:05:47;;;;;;;2.30;1.20;;;14.20;99.90;;;;;;4995702;28;20609;-85
2022/09/17 13:08:48;;;;;;;4.60;0.90;;;13.90;99.90;;;;;;5006596;28;20465;-85
2022/09/17 13:11:45;;;;;;;1.50;0.57;;;13.80;99.90;;;;;;5006857;28;20430;-84
2022/09/17 13:14:43;;;;;;;3.60;1.47;;;13.80;99.90;;;;;;4990891;28;20626;-84
2022/09/17 13:17:36;;;;;;;2.67;1.20;;;13.80;99.90;;;;;;4990262;28;20473;-85
2022/09/17 13:20:11;;;;;;;1.57;0.73;;;14.10;99.90;;;;;;4972824;28;20445;-85
2022/09/17 13:22:50;;;;;;;2.37;0.73;;;13.80;99.90;;;;;;4994473;28;20444;-85
2022/09/17 13:25:18;;;;;;;2.75;0.82;;;13.50;99.90;;;;;;4996711;28;20454;-85
2022/09/17 13:27:46;;;;;;;3.38;0.80;;;13.30;99.90;;;;;;4993842;28;20226;-84
2022/09/17 13:30:16;;;;;;;2.42;0.85;;;13.30;99.90;;;;;;4989624;28;20187;-85
2022/09/17 13:32:47;;;;;;;3.75;0.65;;;13.30;99.90;;;;;;4992608;28;20293;-85
2022/09/17 13:35:15;;;;;;;1.83;0.65;;;;;;;;;;4985212;28;20798;-85
2022/09/17 13:37:41;;;;;;;3.17;1.30;;;;;;;;;;4981714;28;20214;-85
2022/09/17 13:40:31;;;;;;;1.13;0.70;;;13.10;99.90;;;;;;5008749;28;20167;-85
2022/09/17 13:43:01;;;;;;;2.80;1.17;;;13.60;99.90;;;;;;4993418;28;20675;-86
2022/09/17 13:45:27;;;;;;;3.08;0.82;;;;;;;;;;4997630;28;20175;-86
2022/09/17 13:48:02;;;;;;;2.60;0.80;;;14.10;99.90;;;;;;4995683;28;20277;-86
2022/09/17 13:50:39;;;;;;;3.97;0.97;;;14.10;99.90;;;;;;5000790;28;20513;-86
2022/09/17 13:53:26;;;;;;;2.23;0.93;;;14.00;99.90;;;;;;4998046;28;20451;-86
2022/09/17 13:55:53;;;;;;;2.90;1.03;;;14.20;99.90;;;;;;4998568;28;20444;-85